createdAt,value
2022-08-05T00:03:57.102Z,4.78
2022-08-05T00:06:32.236Z,4.90
2022-08-05T00:20:02.459Z,2.90
2022-08-05T00:25:52.923Z,4.70
2022-08-05T00:28:21.221Z,3.47
2022-08-05T00:39:13.697Z,4.30
2022-08-05T01:05:09.992Z,4.85
2022-08-05T01:28:27.752Z,5.82
2022-08-05T01:31:01.432Z,2.83
2022-08-05T01:33:36.062Z,2.88
2022-08-05T01:41:38.077Z,3.65
2022-08-05T01:58:29.709Z,2.83
2022-08-05T01:59:47.479Z,4.65
2022-08-05T02:02:16.010Z,3.60
2022-08-05T02:04:49.686Z,2.03
2022-08-05T02:07:21.961Z,6.78
2022-08-05T02:20:54.193Z,4.15
2022-08-05T02:23:33.676Z,3.53
2022-08-05T02:26:04.873Z,3.97
2022-08-05T02:28:38.433Z,2.78
2022-08-05T02:34:09.231Z,2.78
2022-08-05T02:36:43.922Z,3.60
2022-08-05T02:50:13.821Z,3.20
2022-08-05T03:12:33.769Z,4.18
2022-08-05T03:15:01.140Z,4.00
2022-08-05T03:20:06.002Z,5.72
2022-08-05T03:22:33.500Z,8.70
2022-08-05T03:25:31.954Z,10.23
2022-08-05T03:28:00.048Z,17.88
2022-08-05T03:42:41.812Z,11.60
2022-08-05T03:57:16.461Z,4.90
2022-08-05T03:59:55.842Z,7.10
2022-08-05T04:02:38.229Z,7.13
2022-08-05T04:05:13.319Z,11.25
2022-08-05T05:15:59.290Z,6.45
2022-08-05T05:21:21.484Z,4.03
2022-08-05T05:24:04.278Z,9.80
2022-08-05T05:26:36.083Z,5.85
2022-08-05T06:04:23.630Z,6.18
2022-08-05T06:07:22.428Z,10.82
2022-08-05T06:16:28.193Z,6.35
2022-08-05T06:18:53.672Z,6.82
2022-08-05T06:21:20.600Z,5.53
2022-08-05T06:23:49.768Z,11.98
2022-08-05T06:26:21.338Z,5.45
2022-08-05T06:28:50.787Z,4.85
2022-08-05T06:31:17.841Z,6.28
2022-08-05T06:34:07.385Z,14.88
2022-08-05T06:36:37.367Z,7.72
2022-08-05T06:41:54.685Z,4.95
2022-08-05T06:44:22.201Z,4.60
2022-08-05T06:46:50.813Z,7.28
2022-08-05T06:49:18.931Z,6.00
2022-08-05T06:51:48.379Z,5.82
2022-08-05T06:54:18.920Z,5.13
2022-08-05T06:56:54.663Z,10.48
2022-08-05T06:59:38.607Z,8.88
2022-08-05T07:02:06.515Z,3.72
2022-08-05T07:04:33.828Z,5.90
2022-08-05T07:07:03.767Z,4.90
2022-08-05T07:09:40.565Z,7.82
2022-08-05T07:12:30.109Z,6.70
2022-08-05T07:15:17.340Z,4.32
2022-08-05T07:18:08.106Z,3.60
2022-08-05T07:20:38.853Z,4.60
2022-08-05T07:26:24.865Z,6.40
2022-08-05T07:28:52.869Z,7.38
2022-08-05T07:31:20.435Z,12.70
2022-08-05T07:34:08.450Z,3.63
2022-08-05T07:36:35.650Z,6.28
2022-08-05T07:39:08.373Z,3.25
2022-08-05T07:42:13.074Z,3.47
2022-08-05T07:44:38.636Z,3.47
2022-08-05T07:47:08.872Z,6.13
2022-08-05T07:49:43.470Z,4.93
2022-08-05T07:52:21.885Z,2.97
2022-08-05T07:54:50.812Z,10.85
2022-08-05T07:57:41.771Z,4.18
2022-08-05T08:00:11.321Z,3.78
2022-08-05T08:03:13.801Z,4.47
2022-08-05T08:05:27.334Z,7.25
2022-08-05T08:07:59.072Z,3.65
2022-08-05T08:10:27.232Z,4.60
2022-08-05T08:12:54.469Z,3.22
2022-08-05T08:16:33.698Z,4.15
2022-08-05T08:18:14.386Z,6.15
2022-08-05T08:20:59.907Z,9.57
2022-08-05T08:24:01.104Z,4.75
2022-08-05T08:26:15.388Z,3.88
2022-08-05T08:28:59.522Z,2.95
2022-08-05T08:31:29.464Z,3.72
2022-08-05T08:34:00.097Z,4.07
2022-08-05T08:36:38.161Z,5.20
2022-08-05T08:39:15.088Z,2.22
2022-08-05T08:41:52.710Z,2.33
2022-08-05T08:45:16.608Z,3.13
2022-08-05T08:47:47.472Z,4.55
2022-08-05T08:50:30.746Z,3.70
2022-08-05T08:53:03.395Z,3.17
2022-08-05T08:56:03.980Z,3.53
2022-08-05T08:58:43.304Z,4.18
2022-08-05T09:01:16.335Z,5.43
2022-08-05T09:03:47.476Z,2.67
2022-08-05T09:06:19.983Z,3.83
2022-08-05T09:08:48.243Z,3.40
2022-08-05T09:11:15.300Z,2.50
2022-08-05T09:14:10.065Z,2.47
2022-08-05T09:16:35.471Z,2.42
2022-08-05T09:19:06.783Z,4.60
2022-08-05T09:22:22.028Z,3.60
2022-08-05T09:24:21.373Z,7.38
2022-08-05T09:26:53.212Z,4.25
2022-08-05T09:29:20.360Z,2.80
2022-08-05T09:32:41.514Z,3.92
2022-08-05T09:34:58.529Z,5.13
2022-08-05T09:38:12.480Z,3.15
2022-08-05T09:40:40.999Z,5.20
2022-08-05T09:43:40.915Z,4.15
2022-08-05T09:46:28.190Z,4.15
2022-08-05T09:49:08.291Z,3.30
2022-08-05T09:51:48.748Z,5.55
2022-08-05T09:59:47.936Z,6.13
2022-08-05T10:02:31.378Z,4.10
2022-08-05T10:05:04.551Z,2.45
2022-08-05T10:08:34.999Z,5.00
2022-08-05T10:10:45.211Z,3.10
2022-08-05T10:13:47.144Z,4.75
2022-08-05T10:16:41.863Z,3.75
2022-08-05T10:19:23.473Z,2.63
2022-08-05T10:21:59.074Z,4.47
2022-08-05T10:24:27.207Z,2.78
2022-08-05T10:27:00.511Z,3.38
2022-08-05T10:30:06.937Z,2.83
2022-08-05T10:32:53.605Z,3.53
2022-08-05T10:35:04.791Z,3.42
2022-08-05T10:37:40.448Z,3.20
2022-08-05T10:40:45.104Z,2.47
2022-08-05T10:43:35.802Z,2.63
2022-08-05T10:46:07.194Z,3.75
2022-08-05T10:48:56.657Z,2.35
2022-08-05T10:51:28.818Z,3.25
2022-08-05T10:54:05.901Z,2.47
2022-08-05T10:56:52.791Z,2.53
2022-08-05T11:00:04.098Z,6.95
2022-08-05T11:02:37.470Z,4.75
2022-08-05T11:05:10.364Z,3.67
2022-08-05T11:08:01.814Z,6.53
2022-08-05T11:10:37.831Z,2.95
2022-08-05T11:13:58.121Z,2.15
2022-08-05T11:16:47.902Z,1.92
2022-08-05T11:20:10.821Z,3.08
2022-08-05T11:22:42.115Z,2.22
2022-08-05T11:26:06.035Z,2.20
2022-08-05T11:28:18.409Z,2.50
2022-08-05T11:30:58.393Z,5.70
2022-08-05T11:33:48.788Z,3.67
2022-08-05T11:36:33.953Z,2.13
2022-08-05T11:39:01.599Z,4.65
2022-08-05T11:41:56.477Z,2.30
2022-08-05T11:44:40.123Z,5.38
2022-08-05T11:47:13.986Z,2.00
2022-08-05T11:49:43.265Z,2.75
2022-08-05T11:52:29.741Z,1.73
2022-08-05T11:54:59.535Z,1.70
2022-08-05T11:58:07.871Z,2.30
2022-08-05T12:00:30.429Z,2.90
2022-08-05T12:02:57.739Z,1.60
2022-08-05T12:05:36.517Z,2.17
2022-08-05T12:08:10.820Z,4.40
2022-08-05T12:10:45.768Z,2.90
2022-08-05T12:13:18.660Z,6.13
2022-08-05T12:15:55.962Z,2.38
2022-08-05T12:18:34.369Z,8.80
2022-08-05T12:21:11.238Z,2.88
2022-08-05T12:23:43.097Z,2.08
2022-08-05T12:26:10.573Z,3.28
2022-08-05T12:28:38.518Z,3.35
2022-08-05T12:31:05.601Z,1.67
2022-08-05T12:33:37.189Z,2.08
2022-08-05T12:36:08.419Z,1.83
2022-08-05T12:38:40.365Z,2.75
2022-08-05T12:41:13.988Z,3.60
2022-08-05T12:43:55.044Z,2.75
2022-08-05T12:46:29.720Z,1.20
2022-08-05T12:49:05.902Z,1.95
2022-08-05T12:52:13.675Z,1.15
2022-08-05T12:54:52.004Z,1.20
2022-08-05T12:57:19.590Z,1.20
2022-08-05T13:01:57.781Z,2.85
2022-08-05T13:02:41.012Z,3.38
2022-08-05T13:05:08.442Z,2.17
2022-08-05T13:07:59.110Z,2.05
2022-08-05T13:10:27.124Z,3.58
2022-08-05T13:12:57.872Z,1.83
2022-08-05T13:15:41.510Z,1.17
2022-08-05T13:18:20.780Z,1.55
2022-08-05T13:20:49.796Z,2.45
2022-08-05T13:23:22.089Z,1.42
2022-08-05T13:25:59.523Z,1.42
2022-08-05T13:28:28.924Z,1.95
2022-08-05T13:30:55.766Z,1.52
2022-08-05T13:34:22.600Z,2.20
2022-08-05T13:36:14.370Z,3.45
2022-08-05T13:38:42.401Z,2.85
2022-08-05T13:41:11.262Z,1.45
2022-08-05T13:43:45.511Z,2.63
2022-08-05T13:46:43.824Z,1.33
2022-08-05T13:49:11.520Z,1.20
2022-08-05T13:51:46.481Z,2.83
2022-08-05T13:54:15.509Z,5.18
2022-08-05T13:56:50.850Z,1.33
2022-08-05T13:59:27.096Z,6.63
2022-08-05T14:02:00.404Z,2.47
2022-08-05T14:04:54.530Z,1.45
2022-08-05T14:07:59.516Z,3.17
2022-08-05T14:10:28.129Z,2.75
2022-08-05T14:12:57.062Z,1.25
2022-08-05T14:16:08.955Z,0.80
2022-08-05T14:18:14.674Z,2.95
2022-08-05T14:20:47.324Z,2.17
2022-08-05T14:23:18.953Z,2.95
2022-08-05T14:25:54.200Z,1.83
2022-08-05T14:28:26.771Z,2.95
2022-08-05T14:30:55.668Z,1.17
2022-08-05T14:33:24.055Z,4.90
2022-08-05T14:35:54.019Z,2.28
2022-08-05T14:38:32.788Z,5.10
2022-08-05T14:41:06.638Z,2.22
2022-08-05T14:43:59.587Z,4.18
2022-08-05T14:46:29.000Z,3.90
2022-08-05T14:49:06.714Z,1.50
2022-08-05T14:51:37.999Z,1.85
2022-08-05T14:54:27.746Z,1.33
2022-08-05T14:56:56.055Z,4.38
2022-08-05T14:59:22.983Z,2.00
2022-08-05T15:01:50.187Z,1.80
2022-08-05T15:04:22.437Z,2.10
2022-08-05T15:06:51.035Z,0.85
2022-08-05T15:09:52.680Z,1.27
2022-08-05T15:12:08.779Z,2.13
2022-08-05T15:14:48.472Z,4.57
2022-08-05T15:17:45.655Z,2.10
2022-08-05T15:20:04.998Z,1.02
2022-08-05T15:22:32.326Z,1.45
2022-08-05T15:24:59.869Z,5.10
2022-08-05T15:27:32.048Z,2.30
2022-08-05T15:29:59.613Z,2.92
2022-08-05T15:32:28.611Z,1.40
2022-08-05T15:34:56.695Z,2.60
2022-08-05T15:38:32.841Z,0.80
2022-08-05T15:41:02.957Z,2.10
2022-08-05T15:43:02.692Z,1.70
2022-08-05T15:45:38.466Z,1.08
2022-08-05T15:48:05.858Z,1.80
2022-08-05T15:50:33.769Z,4.15
2022-08-05T15:53:04.111Z,2.05
2022-08-05T15:56:02.043Z,2.22
2022-08-05T15:58:19.787Z,0.73
2022-08-05T16:01:04.205Z,4.45
2022-08-05T16:03:41.167Z,3.00
2022-08-05T16:06:09.355Z,2.28
2022-08-05T16:08:38.533Z,4.63
2022-08-05T16:11:05.450Z,4.85
2022-08-05T16:13:34.904Z,1.77
2022-08-05T16:16:03.715Z,1.10
2022-08-05T16:18:33.065Z,5.15
2022-08-05T16:21:04.140Z,5.10
2022-08-05T16:23:53.744Z,1.35
2022-08-05T16:26:26.204Z,2.63
2022-08-05T16:28:54.536Z,1.15
2022-08-05T16:31:21.918Z,1.83
2022-08-05T16:33:49.578Z,5.22
2022-08-05T16:36:20.178Z,1.33
2022-08-05T16:38:55.036Z,6.30
2022-08-05T16:42:13.651Z,3.13
2022-08-05T16:44:14.567Z,1.92
2022-08-05T16:46:56.051Z,1.33
2022-08-05T16:49:23.687Z,2.63
2022-08-05T16:51:51.165Z,2.55
2022-08-05T16:54:27.548Z,4.85
2022-08-05T16:56:57.227Z,1.92
2022-08-05T16:59:24.041Z,3.85
2022-08-05T17:01:56.079Z,1.33
2022-08-05T17:04:28.391Z,2.20
2022-08-05T17:07:00.905Z,1.15
2022-08-05T17:09:29.945Z,1.58
2022-08-05T17:11:59.879Z,2.40
2022-08-05T17:14:37.362Z,2.33
2022-08-05T17:17:14.453Z,2.22
2022-08-05T17:19:45.285Z,3.60
2022-08-05T17:22:24.417Z,4.15
2022-08-05T17:24:57.525Z,3.55
2022-08-05T17:27:34.354Z,6.15
2022-08-05T17:30:02.801Z,5.82
2022-08-05T17:32:30.336Z,1.92
2022-08-05T17:35:01.222Z,2.05
2022-08-05T17:37:40.066Z,1.60
2022-08-05T17:40:12.672Z,3.38
2022-08-05T17:42:41.739Z,8.32
2022-08-05T17:45:17.916Z,2.95
2022-08-05T17:47:53.900Z,4.15
2022-08-05T17:50:28.077Z,4.35
2022-08-05T17:52:56.311Z,4.53
2022-08-05T17:55:27.217Z,2.80
2022-08-05T17:58:02.262Z,3.22
2022-08-05T18:00:29.858Z,3.85
2022-08-05T18:02:57.321Z,3.38
2022-08-05T18:05:28.225Z,7.13
2022-08-05T18:08:02.215Z,3.72
2022-08-05T18:10:32.045Z,2.90
2022-08-05T18:13:01.923Z,7.63
2022-08-05T18:15:35.146Z,4.63
2022-08-05T18:18:10.893Z,7.65
2022-08-05T18:20:38.998Z,4.88
2022-08-05T18:23:11.432Z,3.75
2022-08-05T18:25:44.830Z,2.95
2022-08-05T18:28:17.614Z,3.25
2022-08-05T19:01:07.764Z,8.27
2022-08-05T19:03:55.179Z,4.60
2022-08-05T19:06:34.127Z,5.05
2022-08-05T19:09:12.423Z,4.03
2022-08-05T19:11:59.874Z,8.73
2022-08-05T19:14:38.011Z,8.45
2022-08-05T19:29:40.212Z,7.93
2022-08-05T19:32:11.588Z,6.03
2022-08-05T19:34:39.258Z,10.35
2022-08-05T20:01:39.795Z,7.75
2022-08-05T20:04:07.059Z,5.22
2022-08-05T20:12:49.472Z,11.32
2022-08-05T20:21:35.420Z,5.20
2022-08-05T20:26:54.065Z,7.47
2022-08-05T20:29:27.466Z,11.75
2022-08-05T20:34:40.472Z,7.05
2022-08-05T20:38:06.254Z,5.28
2022-08-05T20:40:28.101Z,7.55
2022-08-05T20:42:59.203Z,7.40
2022-08-05T20:48:30.426Z,6.63
2022-08-05T20:50:57.360Z,7.60
2022-08-05T20:53:40.799Z,6.93
2022-08-05T20:59:03.309Z,8.52
2022-08-05T21:04:52.051Z,6.32
2022-08-05T21:16:04.290Z,8.38
2022-08-05T21:24:48.884Z,11.38
2022-08-05T21:27:20.565Z,10.88
2022-08-05T21:29:51.939Z,11.32
2022-08-05T21:32:32.677Z,8.15
2022-08-05T21:35:18.046Z,11.23
2022-08-05T21:44:27.083Z,18.95
2022-08-05T21:46:57.948Z,16.30
2022-08-05T21:50:00.092Z,14.13
2022-08-05T21:52:22.552Z,17.67
2022-08-05T22:03:48.835Z,13.95
2022-08-05T22:09:20.954Z,8.85
2022-08-05T22:11:49.114Z,5.77
2022-08-05T22:17:30.033Z,5.57
2022-08-05T22:26:09.889Z,7.20
2022-08-05T22:28:41.258Z,13.25
2022-08-05T22:31:12.356Z,6.70
2022-08-05T22:45:23.059Z,7.85
2022-08-05T22:53:20.725Z,7.60
2022-08-05T23:01:24.180Z,8.68
2022-08-05T23:04:10.985Z,5.82
2022-08-05T23:06:37.828Z,7.18
2022-08-05T23:17:34.217Z,7.40
2022-08-05T23:20:17.647Z,6.72
2022-08-05T23:25:53.094Z,6.50
2022-08-05T23:31:16.083Z,6.82
2022-08-05T23:39:55.772Z,11.45
2022-08-05T23:42:29.449Z,10.57
2022-08-05T23:44:57.085Z,5.75
2022-08-05T23:55:41.514Z,5.75
2022-08-05T23:58:32.131Z,10.02
